sensor_id;sensor_type;location;lat;lon;timestamp;P1;durP1;ratioP1;P2;durP2;ratioP2
3865;SDS011;1948;53.250;10.412;2023-03-04T00:00:29;26.13;;;3.60;;
3865;SDS011;1948;53.250;10.412;2023-03-04T00:02:57;19.60;;;2.77;;
3865;SDS011;1948;53.250;10.412;2023-03-04T00:05:24;13.37;;;3.00;;
3865;SDS011;1948;53.250;10.412;2023-03-04T00:07:51;28.10;;;5.20;;
3865;SDS011;1948;53.250;10.412;2023-03-04T00:10:21;19.57;;;3.23;;
3865;SDS011;1948;53.250;10.412;2023-03-04T00:12:50;25.10;;;3.23;;
3865;SDS011;1948;53.250;10.412;2023-03-04T00:15:17;27.63;;;2.90;;
3865;SDS011;1948;53.250;10.412;2023-03-04T00:17:44;23.37;;;2.90;;
3865;SDS011;1948;53.250;10.412;2023-03-04T00:20:12;15.33;;;3.50;;
3865;SDS011;1948;53.250;10.412;2023-03-04T00:22:42;22.10;;;3.73;;
3865;SDS011;1948;53.250;10.412;2023-03-04T00:25:09;17.93;;;3.70;;
3865;SDS011;1948;53.250;10.412;2023-03-04T00:27:39;16.53;;;3.30;;
3865;SDS011;1948;53.250;10.412;2023-03-04T00:30:07;8.30;;;3.73;;
3865;SDS011;1948;53.250;10.412;2023-03-04T00:32:37;33.23;;;4.20;;
3865;SDS011;1948;53.250;10.412;2023-03-04T00:35:09;18.43;;;4.27;;
3865;SDS011;1948;53.250;10.412;2023-03-04T00:37:38;13.83;;;4.10;;
3865;SDS011;1948;53.250;10.412;2023-03-04T00:40:09;16.87;;;3.63;;
3865;SDS011;1948;53.250;10.412;2023-03-04T00:42:36;7.60;;;3.80;;
3865;SDS011;1948;53.250;10.412;2023-03-04T00:45:04;15.03;;;2.83;;
3865;SDS011;1948;53.250;10.412;2023-03-04T00:47:36;20.27;;;3.40;;
3865;SDS011;1948;53.250;10.412;2023-03-04T00:50:03;16.87;;;3.20;;
3865;SDS011;1948;53.250;10.412;2023-03-04T00:52:34;15.83;;;3.60;;
3865;SDS011;1948;53.250;10.412;2023-03-04T00:55:03;13.80;;;3.00;;
3865;SDS011;1948;53.250;10.412;2023-03-04T00:57:33;20.83;;;3.50;;
3865;SDS011;1948;53.250;10.412;2023-03-04T01:00:01;7.97;;;2.57;;
3865;SDS011;1948;53.250;10.412;2023-03-04T01:02:28;9.47;;;2.57;;
3865;SDS011;1948;53.250;10.412;2023-03-04T01:04:58;15.97;;;2.97;;
3865;SDS011;1948;53.250;10.412;2023-03-04T01:07:24;13.20;;;2.80;;
3865;SDS011;1948;53.250;10.412;2023-03-04T01:09:51;11.10;;;2.67;;
3865;SDS011;1948;53.250;10.412;2023-03-04T01:12:18;8.37;;;2.37;;
3865;SDS011;1948;53.250;10.412;2023-03-04T01:14:45;27.37;;;2.73;;
3865;SDS011;1948;53.250;10.412;2023-03-04T01:17:12;12.67;;;2.13;;
3865;SDS011;1948;53.250;10.412;2023-03-04T01:19:44;11.63;;;2.60;;
3865;SDS011;1948;53.250;10.412;2023-03-04T01:22:14;11.13;;;2.43;;
3865;SDS011;1948;53.250;10.412;2023-03-04T01:24:44;13.00;;;1.90;;
3865;SDS011;1948;53.250;10.412;2023-03-04T01:27:14;21.90;;;2.40;;
3865;SDS011;1948;53.250;10.412;2023-03-04T01:29:41;6.47;;;2.03;;
3865;SDS011;1948;53.250;10.412;2023-03-04T01:32:12;5.43;;;1.70;;
3865;SDS011;1948;53.250;10.412;2023-03-04T01:34:39;4.73;;;2.10;;
3865;SDS011;1948;53.250;10.412;2023-03-04T01:37:06;17.23;;;2.10;;
3865;SDS011;1948;53.250;10.412;2023-03-04T01:39:34;5.50;;;1.87;;
3865;SDS011;1948;53.250;10.412;2023-03-04T01:42:01;7.07;;;2.13;;
3865;SDS011;1948;53.250;10.412;2023-03-04T01:44:28;14.60;;;2.30;;
3865;SDS011;1948;53.250;10.412;2023-03-04T01:46:55;9.90;;;1.87;;
3865;SDS011;1948;53.250;10.412;2023-03-04T01:49:22;9.07;;;2.20;;
3865;SDS011;1948;53.250;10.412;2023-03-04T01:51:53;16.07;;;2.80;;
3865;SDS011;1948;53.250;10.412;2023-03-04T01:54:21;8.57;;;1.93;;
3865;SDS011;1948;53.250;10.412;2023-03-04T01:56:49;5.80;;;1.87;;
3865;SDS011;1948;53.250;10.412;2023-03-04T01:59:23;25.83;;;2.60;;
3865;SDS011;1948;53.250;10.412;2023-03-04T02:01:53;18.70;;;1.80;;
3865;SDS011;1948;53.250;10.412;2023-03-04T02:04:25;8.63;;;2.00;;
3865;SDS011;1948;53.250;10.412;2023-03-04T02:06:59;11.53;;;1.60;;
3865;SDS011;1948;53.250;10.412;2023-03-04T02:09:28;10.33;;;1.87;;
3865;SDS011;1948;53.250;10.412;2023-03-04T02:11:59;3.83;;;0.90;;
3865;SDS011;1948;53.250;10.412;2023-03-04T02:14:27;14.67;;;2.13;;
3865;SDS011;1948;53.250;10.412;2023-03-04T02:16:56;6.13;;;1.33;;
3865;SDS011;1948;53.250;10.412;2023-03-04T02:19:36;9.47;;;1.47;;
3865;SDS011;1948;53.250;10.412;2023-03-04T02:22:15;7.83;;;1.60;;
3865;SDS011;1948;53.250;10.412;2023-03-04T02:24:46;6.53;;;1.87;;
3865;SDS011;1948;53.250;10.412;2023-03-04T02:27:20;7.67;;;1.60;;
3865;SDS011;1948;53.250;10.412;2023-03-04T02:29:48;7.00;;;1.97;;
3865;SDS011;1948;53.250;10.412;2023-03-04T02:32:15;5.80;;;1.57;;
3865;SDS011;1948;53.250;10.412;2023-03-04T02:34:46;6.20;;;1.63;;
3865;SDS011;1948;53.250;10.412;2023-03-04T02:37:17;7.00;;;1.30;;
3865;SDS011;1948;53.250;10.412;2023-03-04T02:39:45;2.27;;;1.20;;
3865;SDS011;1948;53.250;10.412;2023-03-04T02:42:14;14.03;;;1.43;;
3865;SDS011;1948;53.250;10.412;2023-03-04T02:44:44;6.80;;;1.60;;
3865;SDS011;1948;53.250;10.412;2023-03-04T02:47:15;7.33;;;1.70;;
3865;SDS011;1948;53.250;10.412;2023-03-04T02:49:43;9.60;;;1.80;;
3865;SDS011;1948;53.250;10.412;2023-03-04T02:52:12;11.40;;;2.13;;
3865;SDS011;1948;53.250;10.412;2023-03-04T02:54:47;17.67;;;1.90;;
3865;SDS011;1948;53.250;10.412;2023-03-04T02:57:14;9.70;;;1.43;;
3865;SDS011;1948;53.250;10.412;2023-03-04T02:59:44;8.60;;;1.63;;
3865;SDS011;1948;53.250;10.412;2023-03-04T03:02:16;6.77;;;1.40;;
3865;SDS011;1948;53.250;10.412;2023-03-04T03:04:43;10.00;;;1.97;;
3865;SDS011;1948;53.250;10.412;2023-03-04T03:07:12;3.90;;;1.90;;
3865;SDS011;1948;53.250;10.412;2023-03-04T03:09:42;9.80;;;2.17;;
3865;SDS011;1948;53.250;10.412;2023-03-04T03:12:09;12.03;;;1.70;;
3865;SDS011;1948;53.250;10.412;2023-03-04T03:14:36;18.83;;;2.43;;
3865;SDS011;1948;53.250;10.412;2023-03-04T03:17:03;12.40;;;1.83;;
3865;SDS011;1948;53.250;10.412;2023-03-04T03:19:30;11.60;;;1.87;;
3865;SDS011;1948;53.250;10.412;2023-03-04T03:21:57;9.90;;;1.57;;
3865;SDS011;1948;53.250;10.412;2023-03-04T03:24:28;6.90;;;1.33;;
3865;SDS011;1948;53.250;10.412;2023-03-04T03:26:55;1.63;;;1.00;;
3865;SDS011;1948;53.250;10.412;2023-03-04T03:29:22;8.13;;;1.33;;
3865;SDS011;1948;53.250;10.412;2023-03-04T03:31:49;6.17;;;1.37;;
3865;SDS011;1948;53.250;10.412;2023-03-04T03:34:16;9.30;;;1.53;;
3865;SDS011;1948;53.250;10.412;2023-03-04T03:36:50;6.80;;;2.00;;
3865;SDS011;1948;53.250;10.412;2023-03-04T03:39:17;8.43;;;1.60;;
3865;SDS011;1948;53.250;10.412;2023-03-04T03:41:45;10.10;;;1.70;;
3865;SDS011;1948;53.250;10.412;2023-03-04T03:44:12;4.83;;;1.53;;
3865;SDS011;1948;53.250;10.412;2023-03-04T03:46:41;9.70;;;1.60;;
3865;SDS011;1948;53.250;10.412;2023-03-04T03:49:08;7.23;;;1.63;;
3865;SDS011;1948;53.250;10.412;2023-03-04T03:51:35;11.43;;;2.10;;
3865;SDS011;1948;53.250;10.412;2023-03-04T03:54:02;9.17;;;2.17;;
3865;SDS011;1948;53.250;10.412;2023-03-04T03:56:31;4.83;;;1.70;;
3865;SDS011;1948;53.250;10.412;2023-03-04T03:59:01;14.83;;;2.20;;
3865;SDS011;1948;53.250;10.412;2023-03-04T04:01:28;11.43;;;1.60;;
3865;SDS011;1948;53.250;10.412;2023-03-04T04:03:55;7.20;;;1.40;;
3865;SDS011;1948;53.250;10.412;2023-03-04T04:06:22;7.73;;;1.90;;
3865;SDS011;1948;53.250;10.412;2023-03-04T04:08:48;8.13;;;2.20;;
3865;SDS011;1948;53.250;10.412;2023-03-04T04:11:18;12.60;;;1.87;;
3865;SDS011;1948;53.250;10.412;2023-03-04T04:13:45;7.87;;;2.30;;
3865;SDS011;1948;53.250;10.412;2023-03-04T04:16:14;12.80;;;1.60;;
3865;SDS011;1948;53.250;10.412;2023-03-04T04:18:41;14.07;;;2.07;;
3865;SDS011;1948;53.250;10.412;2023-03-04T04:21:11;15.47;;;1.63;;
3865;SDS011;1948;53.250;10.412;2023-03-04T04:23:39;4.73;;;1.50;;
3865;SDS011;1948;53.250;10.412;2023-03-04T04:26:10;11.50;;;2.10;;
3865;SDS011;1948;53.250;10.412;2023-03-04T04:28:37;11.13;;;1.57;;
3865;SDS011;1948;53.250;10.412;2023-03-04T04:31:07;13.57;;;2.03;;
3865;SDS011;1948;53.250;10.412;2023-03-04T04:33:39;3.17;;;1.10;;
3865;SDS011;1948;53.250;10.412;2023-03-04T04:36:11;5.73;;;1.37;;
3865;SDS011;1948;53.250;10.412;2023-03-04T04:38:42;12.60;;;1.43;;
3865;SDS011;1948;53.250;10.412;2023-03-04T04:41:16;3.43;;;1.33;;
3865;SDS011;1948;53.250;10.412;2023-03-04T04:43:48;8.03;;;1.47;;
3865;SDS011;1948;53.250;10.412;2023-03-04T04:46:21;11.30;;;1.60;;
3865;SDS011;1948;53.250;10.412;2023-03-04T04:48:51;11.60;;;2.60;;
3865;SDS011;1948;53.250;10.412;2023-03-04T04:51:20;6.00;;;1.30;;
3865;SDS011;1948;53.250;10.412;2023-03-04T04:53:48;6.43;;;1.50;;
3865;SDS011;1948;53.250;10.412;2023-03-04T04:56:21;9.50;;;1.50;;
3865;SDS011;1948;53.250;10.412;2023-03-04T04:58:52;13.43;;;1.77;;
3865;SDS011;1948;53.250;10.412;2023-03-04T05:01:22;1.70;;;1.03;;
3865;SDS011;1948;53.250;10.412;2023-03-04T05:03:53;7.63;;;1.70;;
3865;SDS011;1948;53.250;10.412;2023-03-04T05:06:21;10.93;;;1.90;;
3865;SDS011;1948;53.250;10.412;2023-03-04T05:08:49;14.50;;;1.77;;
3865;SDS011;1948;53.250;10.412;2023-03-04T05:11:17;11.70;;;1.33;;
3865;SDS011;1948;53.250;10.412;2023-03-04T05:13:45;9.43;;;1.80;;
3865;SDS011;1948;53.250;10.412;2023-03-04T05:16:15;7.73;;;1.50;;
3865;SDS011;1948;53.250;10.412;2023-03-04T05:18:47;3.10;;;1.23;;
3865;SDS011;1948;53.250;10.412;2023-03-04T05:21:14;9.00;;;1.60;;
3865;SDS011;1948;53.250;10.412;2023-03-04T05:23:41;5.57;;;1.47;;
3865;SDS011;1948;53.250;10.412;2023-03-04T05:26:10;4.90;;;1.90;;
3865;SDS011;1948;53.250;10.412;2023-03-04T05:28:44;9.30;;;2.17;;
3865;SDS011;1948;53.250;10.412;2023-03-04T05:31:11;1.60;;;1.50;;
3865;SDS011;1948;53.250;10.412;2023-03-04T05:33:43;3.33;;;1.70;;
3865;SDS011;1948;53.250;10.412;2023-03-04T05:36:10;3.03;;;1.40;;
3865;SDS011;1948;53.250;10.412;2023-03-04T05:38:37;3.80;;;1.97;;
3865;SDS011;1948;53.250;10.412;2023-03-04T05:41:06;2.80;;;1.60;;
3865;SDS011;1948;53.250;10.412;2023-03-04T05:43:35;1.23;;;1.07;;
3865;SDS011;1948;53.250;10.412;2023-03-04T05:46:03;2.10;;;1.33;;
3865;SDS011;1948;53.250;10.412;2023-03-04T05:48:30;2.50;;;1.17;;
3865;SDS011;1948;53.250;10.412;2023-03-04T05:51:00;3.53;;;1.60;;
3865;SDS011;1948;53.250;10.412;2023-03-04T05:53:31;6.27;;;1.43;;
3865;SDS011;1948;53.250;10.412;2023-03-04T05:56:06;3.37;;;1.00;;
3865;SDS011;1948;53.250;10.412;2023-03-04T05:58:35;14.33;;;1.87;;
3865;SDS011;1948;53.250;10.412;2023-03-04T06:01:02;4.10;;;1.40;;
3865;SDS011;1948;53.250;10.412;2023-03-04T06:03:32;5.40;;;1.30;;
3865;SDS011;1948;53.250;10.412;2023-03-04T06:05:59;4.33;;;1.47;;
3865;SDS011;1948;53.250;10.412;2023-03-04T06:08:29;11.10;;;1.90;;
3865;SDS011;1948;53.250;10.412;2023-03-04T06:10:58;3.13;;;1.30;;
3865;SDS011;1948;53.250;10.412;2023-03-04T06:13:25;3.80;;;1.47;;
3865;SDS011;1948;53.250;10.412;2023-03-04T06:15:55;14.47;;;1.77;;
3865;SDS011;1948;53.250;10.412;2023-03-04T06:18:26;10.10;;;1.67;;
3865;SDS011;1948;53.250;10.412;2023-03-04T06:20:58;10.83;;;1.97;;
3865;SDS011;1948;53.250;10.412;2023-03-04T06:23:27;9.20;;;1.77;;
3865;SDS011;1948;53.250;10.412;2023-03-04T06:25:56;4.83;;;2.20;;
3865;SDS011;1948;53.250;10.412;2023-03-04T06:28:25;11.70;;;2.40;;
3865;SDS011;1948;53.250;10.412;2023-03-04T06:30:52;12.27;;;2.20;;
3865;SDS011;1948;53.250;10.412;2023-03-04T06:33:23;14.60;;;3.00;;
3865;SDS011;1948;53.250;10.412;2023-03-04T06:35:55;15.33;;;3.07;;
3865;SDS011;1948;53.250;10.412;2023-03-04T06:38:23;16.93;;;3.17;;
3865;SDS011;1948;53.250;10.412;2023-03-04T06:40:51;6.40;;;3.00;;
3865;SDS011;1948;53.250;10.412;2023-03-04T06:43:21;12.07;;;3.00;;
3865;SDS011;1948;53.250;10.412;2023-03-04T06:45:48;26.93;;;4.07;;
3865;SDS011;1948;53.250;10.412;2023-03-04T06:48:15;23.07;;;4.30;;
3865;SDS011;1948;53.250;10.412;2023-03-04T06:50:46;18.87;;;4.27;;
3865;SDS011;1948;53.250;10.412;2023-03-04T06:53:13;24.17;;;4.13;;
3865;SDS011;1948;53.250;10.412;2023-03-04T06:55:43;22.70;;;4.63;;
3865;SDS011;1948;53.250;10.412;2023-03-04T06:58:12;27.63;;;3.90;;
3865;SDS011;1948;53.250;10.412;2023-03-04T07:00:45;16.77;;;4.90;;
3865;SDS011;1948;53.250;10.412;2023-03-04T07:03:14;19.60;;;4.40;;
3865;SDS011;1948;53.250;10.412;2023-03-04T07:05:42;35.53;;;5.00;;
3865;SDS011;1948;53.250;10.412;2023-03-04T07:08:11;27.83;;;5.23;;
3865;SDS011;1948;53.250;10.412;2023-03-04T07:10:38;15.70;;;3.40;;
3865;SDS011;1948;53.250;10.412;2023-03-04T07:13:05;35.37;;;5.30;;
3865;SDS011;1948;53.250;10.412;2023-03-04T07:15:32;29.17;;;4.23;;
3865;SDS011;1948;53.250;10.412;2023-03-04T07:18:03;24.97;;;3.70;;
3865;SDS011;1948;53.250;10.412;2023-03-04T07:20:31;26.17;;;4.20;;
3865;SDS011;1948;53.250;10.412;2023-03-04T07:22:58;24.10;;;4.70;;
3865;SDS011;1948;53.250;10.412;2023-03-04T07:25:27;17.33;;;3.73;;
3865;SDS011;1948;53.250;10.412;2023-03-04T07:27:57;23.33;;;4.70;;
3865;SDS011;1948;53.250;10.412;2023-03-04T07:30:24;17.43;;;3.80;;
3865;SDS011;1948;53.250;10.412;2023-03-04T07:32:51;34.10;;;5.30;;
3865;SDS011;1948;53.250;10.412;2023-03-04T07:35:19;28.10;;;4.23;;
3865;SDS011;1948;53.250;10.412;2023-03-04T07:37:49;21.13;;;4.23;;
3865;SDS011;1948;53.250;10.412;2023-03-04T07:40:19;15.70;;;4.00;;
3865;SDS011;1948;53.250;10.412;2023-03-04T07:42:52;23.93;;;4.63;;
3865;SDS011;1948;53.250;10.412;2023-03-04T07:45:21;22.40;;;4.27;;
3865;SDS011;1948;53.250;10.412;2023-03-04T07:47:49;21.23;;;4.40;;
3865;SDS011;1948;53.250;10.412;2023-03-04T07:50:19;29.60;;;5.43;;
3865;SDS011;1948;53.250;10.412;2023-03-04T07:52:47;18.63;;;4.33;;
3865;SDS011;1948;53.250;10.412;2023-03-04T07:55:17;22.73;;;4.77;;
3865;SDS011;1948;53.250;10.412;2023-03-04T07:57:46;26.37;;;4.37;;
3865;SDS011;1948;53.250;10.412;2023-03-04T08:00:18;25.97;;;4.60;;
3865;SDS011;1948;53.250;10.412;2023-03-04T08:02:47;11.03;;;4.23;;
3865;SDS011;1948;53.250;10.412;2023-03-04T08:05:14;16.03;;;3.57;;
3865;SDS011;1948;53.250;10.412;2023-03-04T08:07:41;18.17;;;4.03;;
3865;SDS011;1948;53.250;10.412;2023-03-04T08:10:08;22.27;;;3.90;;
3865;SDS011;1948;53.250;10.412;2023-03-04T08:12:36;18.17;;;2.83;;
3865;SDS011;1948;53.250;10.412;2023-03-04T08:15:03;11.90;;;3.63;;
3865;SDS011;1948;53.250;10.412;2023-03-04T08:17:33;10.57;;;3.10;;
3865;SDS011;1948;53.250;10.412;2023-03-04T08:20:01;14.23;;;3.10;;
3865;SDS011;1948;53.250;10.412;2023-03-04T08:22:28;15.93;;;3.07;;
3865;SDS011;1948;53.250;10.412;2023-03-04T08:24:58;8.80;;;4.13;;
3865;SDS011;1948;53.250;10.412;2023-03-04T08:27:25;15.40;;;3.77;;
3865;SDS011;1948;53.250;10.412;2023-03-04T08:29:51;12.73;;;3.27;;
3865;SDS011;1948;53.250;10.412;2023-03-04T08:32:21;16.83;;;3.63;;
3865;SDS011;1948;53.250;10.412;2023-03-04T08:34:48;13.37;;;3.23;;
3865;SDS011;1948;53.250;10.412;2023-03-04T08:37:15;15.27;;;3.30;;
3865;SDS011;1948;53.250;10.412;2023-03-04T08:39:42;17.27;;;4.10;;
3865;SDS011;1948;53.250;10.412;2023-03-04T08:42:11;15.43;;;4.37;;
3865;SDS011;1948;53.250;10.412;2023-03-04T08:44:43;26.07;;;4.83;;
3865;SDS011;1948;53.250;10.412;2023-03-04T08:47:10;17.93;;;3.40;;
3865;SDS011;1948;53.250;10.412;2023-03-04T08:49:42;18.03;;;3.10;;
3865;SDS011;1948;53.250;10.412;2023-03-04T08:52:09;16.27;;;3.70;;
3865;SDS011;1948;53.250;10.412;2023-03-04T08:54:41;14.70;;;3.97;;
3865;SDS011;1948;53.250;10.412;2023-03-04T08:57:11;16.93;;;3.50;;
3865;SDS011;1948;53.250;10.412;2023-03-04T08:59:38;16.60;;;4.13;;
3865;SDS011;1948;53.250;10.412;2023-03-04T09:02:08;22.57;;;4.53;;
3865;SDS011;1948;53.250;10.412;2023-03-04T09:04:35;18.43;;;3.83;;
3865;SDS011;1948;53.250;10.412;2023-03-04T09:07:02;27.43;;;4.13;;
3865;SDS011;1948;53.250;10.412;2023-03-04T09:09:32;29.30;;;4.27;;
3865;SDS011;1948;53.250;10.412;2023-03-04T09:11:59;26.97;;;4.17;;
3865;SDS011;1948;53.250;10.412;2023-03-04T09:14:27;18.90;;;4.00;;
3865;SDS011;1948;53.250;10.412;2023-03-04T09:16:54;20.30;;;3.60;;
3865;SDS011;1948;53.250;10.412;2023-03-04T09:19:26;23.67;;;4.13;;
3865;SDS011;1948;53.250;10.412;2023-03-04T09:21:55;19.00;;;3.87;;
3865;SDS011;1948;53.250;10.412;2023-03-04T09:24:25;19.97;;;3.43;;
3865;SDS011;1948;53.250;10.412;2023-03-04T09:26:52;11.43;;;3.47;;
3865;SDS011;1948;53.250;10.412;2023-03-04T09:29:21;23.70;;;4.53;;
3865;SDS011;1948;53.250;10.412;2023-03-04T09:31:48;18.63;;;4.00;;
3865;SDS011;1948;53.250;10.412;2023-03-04T09:34:17;32.83;;;4.43;;
3865;SDS011;1948;53.250;10.412;2023-03-04T09:36:45;29.23;;;4.00;;
3865;SDS011;1948;53.250;10.412;2023-03-04T09:39:12;34.27;;;4.63;;
3865;SDS011;1948;53.250;10.412;2023-03-04T09:41:43;26.10;;;4.90;;
3865;SDS011;1948;53.250;10.412;2023-03-04T09:44:27;12.40;;;3.00;;
3865;SDS011;1948;53.250;10.412;2023-03-04T09:47:03;33.30;;;5.63;;
3865;SDS011;1948;53.250;10.412;2023-03-04T09:49:39;19.27;;;4.30;;
3865;SDS011;1948;53.250;10.412;2023-03-04T09:54:52;23.50;;;3.80;;
3865;SDS011;1948;53.250;10.412;2023-03-04T10:00:42;30.47;;;4.43;;
3865;SDS011;1948;53.250;10.412;2023-03-04T10:04:11;18.73;;;3.97;;
3865;SDS011;1948;53.250;10.412;2023-03-04T10:06:25;24.63;;;4.93;;
3865;SDS011;1948;53.250;10.412;2023-03-04T10:09:01;23.70;;;4.93;;
3865;SDS011;1948;53.250;10.412;2023-03-04T10:11:54;18.60;;;3.80;;
3865;SDS011;1948;53.250;10.412;2023-03-04T10:14:53;14.67;;;2.80;;
3865;SDS011;1948;53.250;10.412;2023-03-04T10:17:34;24.37;;;4.67;;
3865;SDS011;1948;53.250;10.412;2023-03-04T10:20:23;18.73;;;3.70;;
3865;SDS011;1948;53.250;10.412;2023-03-04T10:23:01;22.60;;;4.10;;
3865;SDS011;1948;53.250;10.412;2023-03-04T10:25:45;30.60;;;4.67;;
3865;SDS011;1948;53.250;10.412;2023-03-04T10:28:17;13.07;;;4.30;;
3865;SDS011;1948;53.250;10.412;2023-03-04T10:33:31;26.73;;;4.80;;
3865;SDS011;1948;53.250;10.412;2023-03-04T10:38:59;27.13;;;3.93;;
3865;SDS011;1948;53.250;10.412;2023-03-04T10:41:28;22.00;;;4.67;;
3865;SDS011;1948;53.250;10.412;2023-03-04T10:46:38;22.30;;;4.00;;
3865;SDS011;1948;53.250;10.412;2023-03-04T10:49:10;24.30;;;4.23;;
3865;SDS011;1948;53.250;10.412;2023-03-04T10:51:41;23.70;;;4.73;;
3865;SDS011;1948;53.250;10.412;2023-03-04T10:57:18;28.40;;;4.67;;
3865;SDS011;1948;53.250;10.412;2023-03-04T11:05:04;25.03;;;4.70;;
3865;SDS011;1948;53.250;10.412;2023-03-04T11:07:41;24.63;;;3.80;;
3865;SDS011;1948;53.250;10.412;2023-03-04T11:10:23;24.00;;;4.70;;
3865;SDS011;1948;53.250;10.412;2023-03-04T11:18:43;20.77;;;4.20;;
3865;SDS011;1948;53.250;10.412;2023-03-04T11:21:16;33.30;;;5.40;;
3865;SDS011;1948;53.250;10.412;2023-03-04T11:29:25;21.27;;;4.47;;
3865;SDS011;1948;53.250;10.412;2023-03-04T11:37:38;25.90;;;5.43;;
3865;SDS011;1948;53.250;10.412;2023-03-04T11:51:56;19.77;;;3.93;;
3865;SDS011;1948;53.250;10.412;2023-03-04T11:55:14;20.60;;;4.50;;
3865;SDS011;1948;53.250;10.412;2023-03-04T12:00:18;26.80;;;3.80;;
3865;SDS011;1948;53.250;10.412;2023-03-04T12:29:03;29.23;;;6.00;;
3865;SDS011;1948;53.250;10.412;2023-03-04T12:37:30;21.07;;;4.20;;
3865;SDS011;1948;53.250;10.412;2023-03-04T12:40:26;21.00;;;4.70;;
3865;SDS011;1948;53.250;10.412;2023-03-04T12:46:03;32.10;;;5.90;;
3865;SDS011;1948;53.250;10.412;2023-03-04T12:49:01;43.53;;;5.23;;
3865;SDS011;1948;53.250;10.412;2023-03-04T12:51:51;30.97;;;5.07;;
3865;SDS011;1948;53.250;10.412;2023-03-04T12:54:30;38.70;;;3.97;;
3865;SDS011;1948;53.250;10.412;2023-03-04T12:57:14;27.67;;;4.20;;
3865;SDS011;1948;53.250;10.412;2023-03-04T13:02:41;15.73;;;4.23;;
3865;SDS011;1948;53.250;10.412;2023-03-04T13:05:54;43.23;;;4.90;;
3865;SDS011;1948;53.250;10.412;2023-03-04T13:14:01;31.60;;;4.83;;
3865;SDS011;1948;53.250;10.412;2023-03-04T13:28:11;37.33;;;5.33;;
3865;SDS011;1948;53.250;10.412;2023-03-04T13:35:49;21.47;;;3.30;;
3865;SDS011;1948;53.250;10.412;2023-03-04T13:44:00;22.70;;;4.37;;
3865;SDS011;1948;53.250;10.412;2023-03-04T13:46:50;21.17;;;4.60;;
3865;SDS011;1948;53.250;10.412;2023-03-04T13:49:20;12.53;;;3.70;;
3865;SDS011;1948;53.250;10.412;2023-03-04T13:51:49;25.33;;;4.63;;
3865;SDS011;1948;53.250;10.412;2023-03-04T13:56:48;29.43;;;4.60;;
3865;SDS011;1948;53.250;10.412;2023-03-04T13:59:55;25.43;;;4.30;;
3865;SDS011;1948;53.250;10.412;2023-03-04T14:02:24;21.73;;;4.67;;
3865;SDS011;1948;53.250;10.412;2023-03-04T14:10:03;21.07;;;3.80;;
3865;SDS011;1948;53.250;10.412;2023-03-04T14:15:24;13.20;;;3.50;;
3865;SDS011;1948;53.250;10.412;2023-03-04T14:17:55;14.47;;;3.40;;
3865;SDS011;1948;53.250;10.412;2023-03-04T14:20:33;14.67;;;3.90;;
3865;SDS011;1948;53.250;10.412;2023-03-04T14:23:26;21.30;;;3.90;;
3865;SDS011;1948;53.250;10.412;2023-03-04T14:26:12;18.50;;;3.80;;
3865;SDS011;1948;53.250;10.412;2023-03-04T14:28:44;19.20;;;2.97;;
3865;SDS011;1948;53.250;10.412;2023-03-04T14:31:18;25.23;;;3.63;;
3865;SDS011;1948;53.250;10.412;2023-03-04T14:33:48;18.83;;;3.73;;
3865;SDS011;1948;53.250;10.412;2023-03-04T14:36:24;34.00;;;4.10;;
3865;SDS011;1948;53.250;10.412;2023-03-04T14:38:54;24.10;;;4.30;;
3865;SDS011;1948;53.250;10.412;2023-03-04T14:41:28;10.47;;;3.40;;
3865;SDS011;1948;53.250;10.412;2023-03-04T14:46:36;19.00;;;3.53;;
3865;SDS011;1948;53.250;10.412;2023-03-04T14:49:37;13.03;;;3.27;;
3865;SDS011;1948;53.250;10.412;2023-03-04T14:52:05;14.00;;;3.40;;
3865;SDS011;1948;53.250;10.412;2023-03-04T14:57:52;17.20;;;4.83;;
3865;SDS011;1948;53.250;10.412;2023-03-04T15:00:35;22.97;;;4.80;;
3865;SDS011;1948;53.250;10.412;2023-03-04T15:03:16;22.80;;;3.63;;
3865;SDS011;1948;53.250;10.412;2023-03-04T15:05:53;16.43;;;3.47;;
3865;SDS011;1948;53.250;10.412;2023-03-04T15:08:24;19.40;;;3.67;;
3865;SDS011;1948;53.250;10.412;2023-03-04T15:10:56;17.43;;;3.67;;
3865;SDS011;1948;53.250;10.412;2023-03-04T15:13:44;25.53;;;4.20;;
3865;SDS011;1948;53.250;10.412;2023-03-04T15:16:16;19.83;;;4.07;;
3865;SDS011;1948;53.250;10.412;2023-03-04T15:18:52;15.63;;;3.60;;
3865;SDS011;1948;53.250;10.412;2023-03-04T15:23:58;11.60;;;3.40;;
3865;SDS011;1948;53.250;10.412;2023-03-04T15:26:27;17.60;;;3.63;;
3865;SDS011;1948;53.250;10.412;2023-03-04T15:28:57;11.27;;;3.23;;
3865;SDS011;1948;53.250;10.412;2023-03-04T15:31:26;23.80;;;4.50;;
3865;SDS011;1948;53.250;10.412;2023-03-04T15:33:54;19.47;;;3.73;;
3865;SDS011;1948;53.250;10.412;2023-03-04T15:36:25;19.67;;;3.23;;
3865;SDS011;1948;53.250;10.412;2023-03-04T15:38:52;16.93;;;3.27;;
3865;SDS011;1948;53.250;10.412;2023-03-04T15:41:23;23.27;;;3.20;;
3865;SDS011;1948;53.250;10.412;2023-03-04T15:43:52;22.30;;;4.07;;
3865;SDS011;1948;53.250;10.412;2023-03-04T15:46:20;11.63;;;2.90;;
3865;SDS011;1948;53.250;10.412;2023-03-04T15:48:47;16.47;;;3.00;;
3865;SDS011;1948;53.250;10.412;2023-03-04T15:51:16;19.47;;;3.83;;
3865;SDS011;1948;53.250;10.412;2023-03-04T15:53:51;12.53;;;2.30;;
3865;SDS011;1948;53.250;10.412;2023-03-04T15:56:24;19.87;;;3.20;;
3865;SDS011;1948;53.250;10.412;2023-03-04T15:58:59;21.93;;;3.63;;
3865;SDS011;1948;53.250;10.412;2023-03-04T16:01:34;11.50;;;3.27;;
3865;SDS011;1948;53.250;10.412;2023-03-04T16:04:03;8.80;;;2.63;;
3865;SDS011;1948;53.250;10.412;2023-03-04T16:06:31;12.90;;;3.60;;
3865;SDS011;1948;53.250;10.412;2023-03-04T16:08:58;15.47;;;3.20;;
3865;SDS011;1948;53.250;10.412;2023-03-04T16:11:26;32.53;;;3.67;;
3865;SDS011;1948;53.250;10.412;2023-03-04T16:13:59;21.97;;;2.73;;
3865;SDS011;1948;53.250;10.412;2023-03-04T16:16:25;20.73;;;3.80;;
3865;SDS011;1948;53.250;10.412;2023-03-04T16:18:52;14.73;;;3.57;;
3865;SDS011;1948;53.250;10.412;2023-03-04T16:21:19;20.27;;;4.30;;
3865;SDS011;1948;53.250;10.412;2023-03-04T16:23:50;10.37;;;2.27;;
3865;SDS011;1948;53.250;10.412;2023-03-04T16:26:20;17.37;;;3.63;;
3865;SDS011;1948;53.250;10.412;2023-03-04T16:28:50;11.43;;;2.90;;
3865;SDS011;1948;53.250;10.412;2023-03-04T16:31:18;16.30;;;3.00;;
3865;SDS011;1948;53.250;10.412;2023-03-04T16:33:47;15.20;;;3.20;;
3865;SDS011;1948;53.250;10.412;2023-03-04T16:36:18;19.57;;;3.03;;
3865;SDS011;1948;53.250;10.412;2023-03-04T16:38:54;11.87;;;3.20;;
3865;SDS011;1948;53.250;10.412;2023-03-04T16:41:28;11.40;;;2.33;;
3865;SDS011;1948;53.250;10.412;2023-03-04T16:44:03;11.53;;;2.50;;
3865;SDS011;1948;53.250;10.412;2023-03-04T16:46:31;13.23;;;2.90;;
3865;SDS011;1948;53.250;10.412;2023-03-04T16:49:00;23.27;;;3.10;;
3865;SDS011;1948;53.250;10.412;2023-03-04T16:51:27;16.17;;;3.30;;
3865;SDS011;1948;53.250;10.412;2023-03-04T16:53:56;25.90;;;3.00;;
3865;SDS011;1948;53.250;10.412;2023-03-04T16:56:26;13.37;;;3.47;;
3865;SDS011;1948;53.250;10.412;2023-03-04T16:58:56;15.43;;;3.00;;
3865;SDS011;1948;53.250;10.412;2023-03-04T17:01:24;16.40;;;2.73;;
3865;SDS011;1948;53.250;10.412;2023-03-04T17:03:56;10.47;;;2.97;;
3865;SDS011;1948;53.250;10.412;2023-03-04T17:06:26;21.00;;;3.60;;
3865;SDS011;1948;53.250;10.412;2023-03-04T17:08:53;9.83;;;2.60;;
3865;SDS011;1948;53.250;10.412;2023-03-04T17:11:21;16.50;;;4.20;;
3865;SDS011;1948;53.250;10.412;2023-03-04T17:13:49;22.70;;;3.47;;
3865;SDS011;1948;53.250;10.412;2023-03-04T17:16:17;16.80;;;3.60;;
3865;SDS011;1948;53.250;10.412;2023-03-04T17:18:44;11.67;;;3.03;;
3865;SDS011;1948;53.250;10.412;2023-03-04T17:21:14;14.83;;;2.60;;
3865;SDS011;1948;53.250;10.412;2023-03-04T17:23:45;24.67;;;4.23;;
3865;SDS011;1948;53.250;10.412;2023-03-04T17:26:12;13.07;;;2.33;;
3865;SDS011;1948;53.250;10.412;2023-03-04T17:28:41;16.83;;;3.00;;
3865;SDS011;1948;53.250;10.412;2023-03-04T17:31:09;11.60;;;2.60;;